Time;durP1;ratioP1;P1;durP2;ratioP2;P2;SDS_P1;SDS_P2;PMS_P1;PMS_P2;Temp;Humidity;BMP_temperature;BMP_pressure;BME280_temperature;BME280_humidity;BME280_pressure;Samples;Min_cycle;Max_cycle;Signal;HPM_P1;HPM_P2
2022/10/02 00:00:54;;;;;;;7.90;4.50;;;;;;;;;;5073607;28;20131;-89
2022/10/02 00:03:24;;;;;;;6.68;4.32;;;;;;;;;;5056271;28;20060;-89
2022/10/02 00:05:53;;;;;;;5.55;4.13;;;;;;;;;;5055692;28;20132;-88
2022/10/02 00:08:27;;;;;;;4.78;3.70;;;;;;;;;;5056032;28;20556;-89
2022/10/02 00:11:01;;;;;;;8.73;4.45;;;;;;;;;;5073579;28;20075;-89
2022/10/02 00:13:31;;;;;;;7.55;4.97;;;;;;;;;;5060146;28;20492;-89
2022/10/02 00:16:00;;;;;;;6.68;3.63;;;;;;;;;;5073304;28;20048;-89
2022/10/02 00:18:32;;;;;;;9.85;4.65;;;;;;;;;;5055877;28;20397;-89
2022/10/02 00:21:18;;;;;;;8.43;4.55;;;;;;;;;;5055773;28;20539;-88
2022/10/02 00:23:48;;;;;;;6.72;4.75;;;;;;;;;;5055806;28;20052;-89
2022/10/02 00:26:28;;;;;;;7.03;4.35;;;;;;;;;;5056133;28;20045;-89
2022/10/02 00:29:05;;;;;;;4.65;3.63;;;;;;;;;;5055890;28;20048;-89
2022/10/02 00:31:32;;;;;;;4.05;3.70;;;;;;;;;;5055315;28;20516;-87
2022/10/02 00:34:08;;;;;;;4.65;3.58;;;;;;;;;;5056659;28;20055;-89
2022/10/02 00:36:50;;;;;;;4.25;3.33;;;;;;;;;;5077186;28;20477;-89
2022/10/02 00:39:32;;;;;;;5.85;3.85;;;;;;;;;;5077160;28;20052;-89
2022/10/02 00:42:11;;;;;;;5.47;4.05;;;;;;;;;;5076973;28;20048;-88
2022/10/02 00:44:45;;;;;;;6.75;4.07;;;;;;;;;;5058841;28;20146;-88
2022/10/02 00:47:36;;;;;;;7.65;4.50;;;;;;;;;;5058586;28;20056;-88
2022/10/02 00:50:14;;;;;;;5.15;4.50;;;;;;;;;;5051190;28;20048;-88
2022/10/02 00:52:41;;;;;;;9.38;5.85;;;;;;;;;;5058609;28;20135;-88
2022/10/02 00:55:09;;;;;;;9.05;5.00;;;;;;;;;;5059047;28;20052;-89
2022/10/02 00:57:53;;;;;;;6.65;4.78;;;;;;;;;;5058840;28;20063;-89
2022/10/02 01:00:22;;;;;;;4.90;3.80;;;;;;;;;;5058869;28;20052;-90
2022/10/02 01:02:52;;;;;;;7.55;4.20;;;;;;;;;;5058587;28;20044;-89
2022/10/02 01:05:20;;;;;;;5.30;3.90;;;;;;;;;;5059036;28;20798;-89
2022/10/02 01:07:49;;;;;;;4.32;3.40;;;;;;;;;;5058924;28;20053;-89
2022/10/02 01:10:17;;;;;;;3.35;3.05;;;;;;;;;;5059677;28;20040;-89
2022/10/02 01:12:44;;;;;;;6.70;3.50;;;;;;;;;;5076117;28;20053;-90
2022/10/02 01:15:12;;;;;;;6.28;3.13;;;;;;;;;;5058267;28;20139;-90
2022/10/02 01:17:40;;;;;;;5.35;3.22;;;;;;;;;;5058413;28;20048;-89
2022/10/02 01:20:16;;;;;;;5.35;3.60;;;;;;;;;;5076071;28;20508;-90
2022/10/02 01:22:51;;;;;;;4.03;2.92;;;;;;;;;;5075890;28;20048;-89
2022/10/02 01:25:18;;;;;;;9.30;3.60;;;;;;;;;;5057979;28;20048;-89
2022/10/02 01:27:46;;;;;;;4.22;3.15;;;;;;;;;;5058350;28;20059;-89
2022/10/02 01:30:16;;;;;;;3.75;3.45;;;;;;;;;;5058345;28;20177;-90
2022/10/02 01:32:47;;;;;;;5.78;3.58;;;;;;;;;;5075616;28;20056;-90
2022/10/02 01:35:15;;;;;;;6.82;3.75;;;;;;;;;;5075826;28;20055;-90
2022/10/02 01:37:43;;;;;;;5.63;3.55;;;;;;;;;;5057930;28;20052;-90
2022/10/02 01:40:22;;;;;;;5.78;3.70;;;;;;;;;;5057912;28;20396;-89
2022/10/02 01:42:49;;;;;;;8.05;3.78;;;;;;;;;;5057780;28;20055;-89
2022/10/02 01:45:17;;;;;;;4.63;3.95;;;;;;;;;;5056579;28;20465;-89
2022/10/02 01:48:04;;;;;;;7.30;4.03;;;;;;;;;;5075274;28;20044;-89
2022/10/02 01:50:43;;;;;;;5.88;3.78;;;;;;;;;;5057242;28;20052;-90
2022/10/02 01:53:19;;;;;;;4.82;3.67;;;;;;;;;;5075467;28;20052;-89
2022/10/02 01:55:46;;;;;;;3.72;3.10;;;;;;;;;;5074258;28;20044;-90
2022/10/02 01:58:28;;;;;;;4.10;3.15;;;;;;;;;;5075071;28;20052;-89
2022/10/02 02:01:15;;;;;;;5.25;3.50;;;;;;;;;;5057821;28;20053;-90
2022/10/02 02:03:55;;;;;;;4.28;3.45;;;;;;;;;;5075246;28;20044;-89
2022/10/02 02:06:31;;;;;;;5.93;4.25;;;;;;;;;;5075313;28;20049;-91
2022/10/02 02:09:03;;;;;;;5.28;3.45;;;;;;;;;;5057607;28;20052;-90
2022/10/02 02:11:31;;;;;;;4.28;3.90;;;;;;;;;;5057342;28;20052;-90
2022/10/02 02:14:13;;;;;;;3.70;3.45;;;;;;;;;;5057393;28;20048;-90
2022/10/02 02:16:42;;;;;;;4.97;3.50;;;;;;;;;;5074680;28;20052;-91
2022/10/02 02:19:28;;;;;;;6.68;3.90;;;;;;;;;;5057222;28;20049;-90
2022/10/02 02:22:07;;;;;;;5.78;3.65;;;;;;;;;;5057456;28;20054;-89
2022/10/02 02:24:40;;;;;;;7.30;4.40;;;;;;;;;;5057174;28;20044;-89
2022/10/02 02:27:10;;;;;;;6.68;4.50;;;;;;;;;;5057492;28;20048;-89
2022/10/02 02:29:38;;;;;;;8.63;4.80;;;;;;;;;;5056835;28;20048;-89
2022/10/02 02:32:08;;;;;;;7.07;4.63;;;;;;;;;;5056892;28;20056;-90
2022/10/02 02:34:39;;;;;;;8.93;4.88;;;;;;;;;;5056743;28;20060;-89
2022/10/02 02:37:10;;;;;;;7.57;4.97;;;;;;;;;;5056801;28;20052;-89
2022/10/02 02:39:44;;;;;;;8.50;5.05;;;;;;;;;;5057339;28;20052;-89
2022/10/02 02:42:13;;;;;;;5.78;4.95;;;;;;;;;;5056943;28;20058;-90
2022/10/02 02:44:48;;;;;;;9.35;6.53;;;;;;;;;;5073947;28;20045;-90
2022/10/02 02:47:25;;;;;;;10.45;6.03;;;;;;;;;;5066516;28;20063;-89
2022/10/02 02:49:55;;;;;;;9.27;6.00;;;;;;;;;;5067280;28;20056;-90
2022/10/02 02:52:27;;;;;;;8.65;5.60;;;;;;;;;;5060594;28;20049;-90
2022/10/02 02:54:58;;;;;;;6.93;5.45;;;;;;;;;;5056463;28;20048;-89
2022/10/02 02:57:32;;;;;;;7.80;6.00;;;;;;;;;;5056496;28;20531;-89
2022/10/02 03:00:00;;;;;;;7.15;6.43;;;;;;;;;;5056401;28;20059;-89
2022/10/02 03:02:27;;;;;;;11.52;7.07;;;;;;;;;;5056211;28;20067;-89
2022/10/02 03:04:55;;;;;;;9.73;6.97;;;;;;;;;;5056328;28;20041;-89
2022/10/02 03:07:22;;;;;;;8.23;6.30;;;;;;;;;;5055894;28;20055;-89
2022/10/02 03:09:55;;;;;;;10.10;8.25;;;;;;;;;;5056165;28;20048;-90
2022/10/02 03:12:31;;;;;;;10.23;7.32;;;;;;;;;;5074407;28;20075;-89
2022/10/02 03:15:07;;;;;;;14.60;7.68;;;;;;;;;;5056665;28;20055;-90
2022/10/02 03:17:35;;;;;;;13.55;7.85;;;;;;;;;;5056085;28;20389;-89
2022/10/02 03:20:03;;;;;;;14.38;9.63;;;;;;;;;;5056148;28;20420;-90
2022/10/02 03:22:35;;;;;;;10.07;7.50;;;;;;;;;;5056073;28;20056;-90
2022/10/02 03:25:10;;;;;;;7.20;6.40;;;;;;;;;;5056429;28;20111;-92
2022/10/02 03:27:42;;;;;;;11.10;7.85;;;;;;;;;;5056164;28;20056;-91
2022/10/02 03:30:11;;;;;;;7.43;6.50;;;;;;;;;;5056213;28;20044;-90
2022/10/02 03:32:39;;;;;;;9.20;7.05;;;;;;;;;;5062224;28;20131;-91
2022/10/02 03:35:10;;;;;;;7.20;6.45;;;;;;;;;;5058651;28;20044;-91
2022/10/02 03:37:38;;;;;;;6.88;5.95;;;;;;;;;;5056298;28;20139;-91
2022/10/02 03:40:06;;;;;;;6.30;5.80;;;;;;;;;;5073679;28;20049;-91
2022/10/02 03:42:34;;;;;;;6.97;5.18;;;;;;;;;;5055822;28;20078;-91
2022/10/02 03:45:02;;;;;;;5.07;4.60;;;;;;;;;;5055756;28;20048;-91
2022/10/02 03:47:29;;;;;;;5.53;5.03;;;;;;;;;;5055977;28;20060;-90
2022/10/02 03:49:56;;;;;;;5.15;4.65;;;;;;;;;;5073553;28;20049;-90
2022/10/02 03:52:24;;;;;;;5.60;4.43;;;;;;;;;;5073382;28;20053;-90
2022/10/02 03:54:56;;;;;;;7.60;5.20;;;;;;;;;;5056051;28;20045;-90
2022/10/02 03:57:24;;;;;;;7.47;5.20;;;;;;;;;;5055646;28;20064;-90
2022/10/02 04:00:03;;;;;;;6.68;5.53;;;;;;;;;;5055749;28;20040;-90
2022/10/02 04:02:37;;;;;;;11.10;7.47;;;;;;;;;;5056061;28;20048;-91
2022/10/02 04:05:19;;;;;;;15.15;8.30;;;;;;;;;;5056656;28;20055;-89
2022/10/02 04:07:48;;;;;;;13.98;9.45;;;;;;;;;;5080899;28;20048;-91
2022/10/02 04:10:22;;;;;;;21.60;13.60;;;;;;;;;;5059654;28;20099;-91
2022/10/02 04:12:51;;;;;;;18.98;12.98;;;;;;;;;;5059477;28;20298;-91
2022/10/02 04:15:21;;;;;;;10.07;8.40;;;;;;;;;;5059747;28;20393;-91
2022/10/02 04:17:51;;;;;;;9.80;7.25;;;;;;;;;;5059558;28;20408;-91
2022/10/02 04:20:26;;;;;;;11.90;6.82;;;;;;;;;;5060844;28;20104;-90
2022/10/02 04:23:00;;;;;;;11.55;6.18;;;;;;;;;;5059744;28;20071;-91
2022/10/02 04:25:29;;;;;;;9.80;6.53;;;;;;;;;;5077352;28;20137;-91
2022/10/02 04:27:58;;;;;;;10.55;6.07;;;;;;;;;;5060032;28;20055;-91
2022/10/02 04:30:25;;;;;;;10.20;7.38;;;;;;;;;;5059390;28;20408;-91
2022/10/02 04:32:53;;;;;;;6.45;5.60;;;;;;;;;;5060042;28;20056;-91
2022/10/02 04:35:32;;;;;;;14.38;6.85;;;;;;;;;;5059810;28;20192;-92
2022/10/02 04:38:03;;;;;;;9.90;6.43;;;;;;;;;;5077263;28;20060;-91
2022/10/02 04:40:49;;;;;;;13.10;6.25;;;;;;;;;;5059545;28;20091;-91
2022/10/02 04:43:19;;;;;;;9.50;6.50;;;;;;;;;;5059001;28;20098;-91
2022/10/02 04:46:02;;;;;;;11.07;6.78;;;;;;;;;;5059057;28;20052;-91
2022/10/02 04:48:35;;;;;;;8.07;7.05;;;;;;;;;;5059594;28;20083;-91
2022/10/02 04:51:03;;;;;;;;;;;;;;;;;;5077138;28;20049;-92
2022/10/02 04:53:30;;;;;;;10.55;6.97;;;;;;;;;;5059418;28;19929;-91
2022/10/02 04:56:03;;;;;;;11.13;8.63;;;;;;;;;;5059176;28;20045;-91
2022/10/02 04:58:49;;;;;;;12.57;10.13;;;;;;;;;;5059126;28;20060;-91
2022/10/02 05:01:22;;;;;;;14.93;8.75;;;;;;;;;;5058974;28;20045;-91
2022/10/02 05:04:05;;;;;;;12.25;10.50;;;;;;;;;;5058569;28;20114;-91
2022/10/02 05:06:51;;;;;;;17.73;13.90;;;;;;;;;;5076187;28;20044;-91
2022/10/02 05:09:40;;;;;;;24.60;17.85;;;;;;;;;;5076480;28;20052;-91
2022/10/02 05:12:14;;;;;;;22.05;16.23;;;;;;;;;;5058740;28;20055;-91
2022/10/02 05:15:03;;;;;;;23.02;16.30;;;;;;;;;;5076154;28;20404;-91
2022/10/02 05:17:48;;;;;;;23.20;15.98;;;;;;;;;;5076564;28;20044;-91
2022/10/02 05:20:22;;;;;;;36.42;26.05;;;;;;;;;;5058361;28;20131;-91
2022/10/02 05:22:49;;;;;;;;;;;;;;;;;;5058677;28;20488;-90
2022/10/02 05:25:16;;;;;;;18.70;12.50;;;;;;;;;;5058468;28;19935;-91
2022/10/02 05:27:55;;;;;;;13.55;9.18;;;;;;;;;;5076106;28;20052;-90
2022/10/02 05:30:22;;;;;;;20.08;14.30;;;;;;;;;;5058375;28;20055;-90
2022/10/02 05:33:08;;;;;;;27.73;16.58;;;;;;;;;;5058296;28;20048;-91
2022/10/02 05:35:50;;;;;;;14.98;8.13;;;;;;;;;;5058103;28;20064;-90
2022/10/02 05:38:35;;;;;;;9.23;7.18;;;;;;;;;;5058246;28;20473;-90
2022/10/02 05:41:04;;;;;;;11.10;6.72;;;;;;;;;;5058239;28;20241;-90
2022/10/02 05:43:31;;;;;;;9.05;6.32;;;;;;;;;;5075409;28;20139;-91
2022/10/02 05:46:01;;;;;;;10.27;7.28;;;;;;;;;;5057766;28;20048;-90
2022/10/02 05:48:37;;;;;;;11.15;8.05;;;;;;;;;;5075622;28;20412;-90
2022/10/02 05:51:10;;;;;;;11.93;9.00;;;;;;;;;;5058150;28;20488;-90
2022/10/02 05:53:46;;;;;;;20.30;9.40;;;;;;;;;;5058031;28;20053;-90
2022/10/02 05:56:17;;;;;;;9.68;7.22;;;;;;;;;;5058148;28;20053;-89
2022/10/02 05:58:44;;;;;;;9.13;6.72;;;;;;;;;;5058154;28;20056;-90
2022/10/02 06:01:16;;;;;;;12.38;7.63;;;;;;;;;;5075452;28;20051;-90
2022/10/02 06:03:47;;;;;;;10.60;8.43;;;;;;;;;;5057772;28;20052;-89
2022/10/02 06:06:15;;;;;;;11.80;7.47;;;;;;;;;;5058337;28;20048;-90
2022/10/02 06:09:01;;;;;;;9.88;8.23;;;;;;;;;;5068800;28;20114;-90
2022/10/02 06:11:29;;;;;;;13.68;10.63;;;;;;;;;;5064881;28;20124;-90
2022/10/02 06:13:56;;;;;;;12.38;9.30;;;;;;;;;;5057353;28;20059;-90
2022/10/02 06:16:28;;;;;;;8.80;7.47;;;;;;;;;;5056782;28;20120;-90
2022/10/02 06:19:04;;;;;;;9.50;7.38;;;;;;;;;;5056306;28;20041;-89
2022/10/02 06:21:33;;;;;;;11.55;7.38;;;;;;;;;;5056707;28;20056;-89
2022/10/02 06:24:04;;;;;;;17.15;10.10;;;;;;;;;;5073752;28;20075;-90
2022/10/02 06:26:34;;;;;;;11.60;8.52;;;;;;;;;;5073764;28;20048;-89
2022/10/02 06:29:18;;;;;;;18.02;9.38;;;;;;;;;;5074231;28;20048;-90
2022/10/02 06:32:05;;;;;;;14.93;11.15;;;;;;;;;;5056652;28;20049;-89
2022/10/02 06:34:33;;;;;;;21.65;12.45;;;;;;;;;;5056222;28;20504;-89
2022/10/02 06:37:18;;;;;;;15.38;12.05;;;;;;;;;;5056513;28;20507;-88
2022/10/02 06:39:59;;;;;;;15.15;10.52;;;;;;;;;;5056081;28;20044;-88
2022/10/02 06:42:37;;;;;;;28.50;14.65;;;;;;;;;;5073533;28;20056;-89
2022/10/02 06:45:18;;;;;;;14.75;11.70;;;;;;;;;;5056101;28;20063;-89
2022/10/02 06:47:56;;;;;;;22.25;14.63;;;;;;;;;;5056231;28;20059;-89
2022/10/02 06:50:29;;;;;;;25.27;16.88;;;;;;;;;;5055790;28;20044;-88
2022/10/02 06:53:02;;;;;;;25.25;17.70;;;;;;;;;;5056114;28;20226;-88
2022/10/02 06:55:30;;;;;;;28.92;20.02;;;;;;;;;;5055685;28;20141;-88
2022/10/02 06:58:00;;;;;;;28.27;17.77;;;;;;;;;;5055761;28;20525;-88
2022/10/02 07:00:27;;;;;;;47.60;23.38;;;;;;;;;;5073938;28;20102;-88
2022/10/02 07:02:54;;;;;;;42.35;23.25;;;;;;;;;;5055662;28;20052;-89
2022/10/02 07:05:33;;;;;;;74.25;28.83;;;;;;;;;;5055920;28;20056;-88
2022/10/02 07:08:09;;;;;;;76.43;28.30;;;;;;;;;;5073432;28;20052;-89
2022/10/02 07:10:36;;;;;;;58.97;25.30;;;;;;;;;;5055839;28;20052;-89
2022/10/02 07:13:31;;;;;;;70.90;29.75;;;;;;;;;;5055475;28;20049;-89
2022/10/02 07:16:07;;;;;;;99.20;34.17;;;;;;;;;;5040982;28;20419;-89
2022/10/02 07:18:41;;;;;;;137.50;41.55;;;;;;;;;;5055460;28;20059;-89
2022/10/02 07:21:08;;;;;;;295.25;72.38;;;;;;;;;;5055694;28;20559;-88
2022/10/02 07:23:39;;;;;;;229.52;55.60;;;;;;;;;;5055301;28;20050;-88
2022/10/02 07:26:15;;;;;;;214.63;65.57;;;;;;;;;;5055328;28;20049;-89
2022/10/02 07:29:03;;;;;;;54.30;29.05;;;;;;;;;;5072920;28;20059;-89
2022/10/02 07:31:39;;;;;;;52.45;27.88;;;;;;;;;;5042715;28;20052;-89
2022/10/02 07:34:13;;;;;;;45.78;24.52;;;;;;;;;;5072845;28;20045;-89
2022/10/02 07:36:40;;;;;;;;;;;;;;;;;;5055922;28;20044;-89
2022/10/02 07:39:26;;;;;;;47.03;41.67;;;;;;;;;;5073216;28;20378;-90
2022/10/02 07:42:11;;;;;;;29.35;25.92;;;;;;;;;;5055411;28;20463;-92
2022/10/02 07:45:14;;;;;;;22.52;16.17;;;;;;;;;;5054077;28;20056;-91
2022/10/02 07:47:50;;;;;;;17.88;11.60;;;;;;;;;;5011286;28;20461;-89
2022/10/02 07:50:20;;;;;;;9.80;7.13;;;;;;;;;;5050665;28;20080;-90
2022/10/02 07:53:03;;;;;;;8.52;4.07;;;;;;;;;;5054987;28;20048;-89
2022/10/02 07:55:31;;;;;;;11.20;3.25;;;;;;;;;;5053944;28;20052;-91
2022/10/02 07:58:17;;;;;;;6.22;2.08;;;;;;;;;;5072824;28;20057;-91
2022/10/02 08:00:50;;;;;;;10.05;2.30;;;;;;;;;;5055515;28;20104;-92
2022/10/02 08:03:39;;;;;;;7.40;3.93;;;;;;;;;;5072711;28;20055;-94
2022/10/02 08:06:07;;;;;;;10.73;5.70;;;;;;;;;;5072726;28;20048;-92
2022/10/02 08:08:38;;;;;;;9.50;3.80;;;;;;;;;;5072519;28;20068;-93
2022/10/02 08:11:10;;;;;;;6.00;2.53;;;;;;;;;;5072840;28;20044;-91
2022/10/02 08:13:40;;;;;;;8.10;3.35;;;;;;;;;;5055459;28;20048;-89
2022/10/02 08:16:08;;;;;;;10.10;2.40;;;;;;;;;;5055466;28;20481;-93
2022/10/02 08:18:38;;;;;;;11.13;2.42;;;;;;;;;;5057365;28;20052;-92
2022/10/02 08:21:17;;;;;;;10.15;3.63;;;;;;;;;;5056487;28;20408;-90
2022/10/02 08:23:56;;;;;;;7.35;1.90;;;;;;;;;;5055155;28;20048;-92
2022/10/02 08:26:30;;;;;;;9.45;3.20;;;;;;;;;;5054504;28;20060;-92
2022/10/02 08:29:22;;;;;;;10.80;3.33;;;;;;;;;;5055998;28;20049;-90
2022/10/02 08:31:52;;;;;;;12.60;2.50;;;;;;;;;;5055268;28;20467;-89
2022/10/02 08:34:21;;;;;;;8.80;2.00;;;;;;;;;;5054589;28;20458;-91
2022/10/02 08:37:07;;;;;;;9.80;1.42;;;;;;;;;;5054845;28;20048;-91
2022/10/02 08:39:43;;;;;;;10.48;2.53;;;;;;;;;;5072697;28;20052;-90
2022/10/02 08:42:17;;;;;;;6.75;1.98;;;;;;;;;;5072698;28;20054;-90
2022/10/02 08:45:03;;;;;;;16.67;2.33;;;;;;;;;;5071885;28;20066;-89
2022/10/02 08:47:49;;;;;;;6.93;1.98;;;;;;;;;;5054980;28;20057;-91
2022/10/02 08:50:35;;;;;;;5.55;1.60;;;;;;;;;;5055375;28;20045;-88
2022/10/02 08:53:10;;;;;;;9.55;3.15;;;;;;;;;;5072364;28;20044;-91
2022/10/02 08:55:46;;;;;;;8.48;2.05;;;;;;;;;;5056618;28;20400;-91
2022/10/02 08:58:32;;;;;;;6.40;1.55;;;;;;;;;;5058520;28;20511;-90
2022/10/02 09:01:15;;;;;;;5.85;2.40;;;;;;;;;;5057923;28;20045;-91
2022/10/02 09:03:45;;;;;;;6.03;1.75;;;;;;;;;;5058189;28;20051;-89
2022/10/02 09:06:29;;;;;;;7.53;2.03;;;;;;;;;;5075790;28;20059;-86
2022/10/02 09:09:02;;;;;;;9.20;2.88;;;;;;;;;;5058182;28;20407;-90
2022/10/02 09:11:45;;;;;;;5.03;2.00;;;;;;;;;;5075574;28;20139;-89
2022/10/02 09:14:15;;;;;;;5.47;3.13;;;;;;;;;;5075263;28;20059;-90
2022/10/02 09:16:45;;;;;;;6.43;1.77;;;;;;;;;;5075413;28;20060;-90
2022/10/02 09:19:18;;;;;;;9.38;2.25;;;;;;;;;;5058032;28;20049;-90
2022/10/02 09:21:50;;;;;;;6.85;1.55;;;;;;;;;;5057581;28;20053;-90
2022/10/02 09:24:39;;;;;;;7.03;1.80;;;;;;;;;;5074996;28;20152;-90
2022/10/02 09:27:30;;;;;;;5.30;1.67;;;;;;;;;;5075052;28;20075;-90
2022/10/02 09:30:03;;;;;;;8.73;2.25;;;;;;;;;;5057746;28;20045;-90
2022/10/02 09:32:49;;;;;;;7.82;3.10;;;;;;;;;;5074936;28;20052;-89
2022/10/02 09:35:27;;;;;;;10.63;3.70;;;;;;;;;;5057434;28;20576;-89
2022/10/02 09:38:09;;;;;;;5.40;2.92;;;;;;;;;;5075216;28;20051;-90
2022/10/02 09:40:57;;;;;;;10.43;3.80;;;;;;;;;;5057491;28;20048;-91
2022/10/02 09:43:43;;;;;;;5.68;2.45;;;;;;;;;;5057255;28;20117;-92
2022/10/02 09:46:10;;;;;;;11.98;2.60;;;;;;;;;;5057410;28;20064;-94
2022/10/02 09:48:43;;;;;;;4.15;1.77;;;;;;;;;;5057771;28;20131;-93
2022/10/02 09:51:17;;;;;;;4.38;1.10;;;;;;;;;;5074708;28;20049;-91
2022/10/02 09:53:50;;;;;;;7.18;1.60;;;;;;;;;;5057166;28;20052;-89
2022/10/02 09:56:33;;;;;;;8.45;1.52;;;;;;;;;;5074813;28;20055;-89
2022/10/02 09:59:01;;;;;;;8.75;2.00;;;;;;;;;;5056714;28;20055;-88
2022/10/02 10:01:46;;;;;;;4.93;1.70;;;;;;;;;;5057060;28;20060;-88
2022/10/02 10:04:17;;;;;;;6.35;3.67;;;;;;;;;;5056573;28;20118;-88
2022/10/02 10:07:06;;;;;;;14.65;5.97;;;;;;;;;;5056049;28;20413;-88
2022/10/02 10:09:52;;;;;;;11.82;3.80;;;;;;;;;;5074321;28;20079;-88
2022/10/02 10:12:19;;;;;;;7.85;4.13;;;;;;;;;;5056368;28;20052;-88
2022/10/02 10:14:55;;;;;;;6.10;3.90;;;;;;;;;;5074154;28;20060;-89
2022/10/02 10:17:54;;;;;;;6.95;3.55;;;;;;;;;;5056363;28;20584;-89
2022/10/02 10:20:36;;;;;;;7.32;3.70;;;;;;;;;;5073914;28;20045;-88
2022/10/02 10:23:19;;;;;;;2.78;2.53;;;;;;;;;;5073457;28;20048;-89
2022/10/02 10:25:54;;;;;;;6.10;2.45;;;;;;;;;;5056959;28;20052;-89
2022/10/02 10:28:21;;;;;;;1.92;1.60;;;;;;;;;;5057211;28;20070;-88
2022/10/02 10:31:27;;;;;;;4.20;1.40;;;;;;;;;;5074572;28;20557;-89
2022/10/02 10:34:23;;;;;;;5.45;2.80;;;;;;;;;;5013126;28;20082;-88
2022/10/02 10:39:59;;;;;;;3.42;2.95;;;;;;;;;;5064816;28;20055;-88
2022/10/02 10:42:52;;;;;;;4.28;2.58;;;;;;;;;;5074306;28;20056;-89
2022/10/02 10:45:53;;;;;;;4.90;2.58;;;;;;;;;;5053391;28;20107;-89
2022/10/02 10:48:31;;;;;;;2.55;1.92;;;;;;;;;;5053170;28;20118;-88
2022/10/02 10:51:17;;;;;;;2.42;1.80;;;;;;;;;;5053489;28;20095;-90
2022/10/02 10:54:07;;;;;;;4.22;2.20;;;;;;;;;;5053355;28;20053;-90
2022/10/02 10:56:36;;;;;;;3.05;1.85;;;;;;;;;;5053613;28;20048;-90
2022/10/02 10:59:31;;;;;;;3.05;2.78;;;;;;;;;;5054073;28;20041;-90
2022/10/02 11:02:17;;;;;;;4.45;2.35;;;;;;;;;;5053278;28;20049;-91
2022/10/02 11:04:52;;;;;;;4.05;2.22;;;;;;;;;;5054154;28;20052;-92
2022/10/02 11:07:26;;;;;;;12.45;9.27;;;;;;;;;;5053066;28;20056;-91
2022/10/02 11:10:07;;;;;;;36.88;23.63;;;;;;;;;;5054187;28;20064;-92
2022/10/02 11:12:54;;;;;;;22.67;15.73;;;;;;;;;;5036476;28;20067;-91
2022/10/02 11:15:43;;;;;;;14.60;9.73;;;;;;;;;;5053910;28;20064;-92
2022/10/02 11:18:30;;;;;;;15.75;9.75;;;;;;;;;;5053932;28;20133;-91
2022/10/02 11:21:09;;;;;;;5.88;3.10;;;;;;;;;;5053412;28;20132;-92
2022/10/02 11:23:52;;;;;;;3.50;2.65;;;;;;;;;;5053350;28;20055;-90
2022/10/02 11:26:24;;;;;;;2.22;1.83;;;;;;;;;;5052830;28;20477;-91
2022/10/02 11:28:57;;;;;;;5.78;4.65;;;;;;;;;;5052922;28;20055;-91
2022/10/02 11:31:45;;;;;;;2.28;2.03;;;;;;;;;;5052655;28;20416;-92
2022/10/02 11:34:17;;;;;;;2.17;2.00;;;;;;;;;;5036067;28;20129;-92
2022/10/02 11:36:47;;;;;;;2.25;1.45;;;;;;;;;;5052857;28;20048;-91
2022/10/02 11:39:29;;;;;;;1.90;1.58;;;;;;;;;;5053650;28;20053;-92
2022/10/02 11:42:09;;;;;;;3.97;1.60;;;;;;;;;;5053190;28;20045;-92
2022/10/02 11:45:03;;;;;;;3.15;1.50;;;;;;;;;;5052330;28;20114;-92
2022/10/02 11:47:49;;;;;;;4.03;2.28;;;;;;;;;;5052530;28;20056;-93
2022/10/02 11:50:29;;;;;;;5.75;2.72;;;;;;;;;;5052126;28;20525;-92
2022/10/02 11:53:22;;;;;;;4.13;3.63;;;;;;;;;;5052815;28;20049;-93
2022/10/02 11:56:05;;;;;;;7.35;5.22;;;;;;;;;;5034232;28;20064;-90
2022/10/02 11:58:40;;;;;;;4.43;2.60;;;;;;;;;;5053352;28;20045;-91
2022/10/02 12:01:10;;;;;;;2.00;1.10;;;;;;;;;;5053109;28;20092;-93
2022/10/02 12:04:17;;;;;;;5.03;1.45;;;;;;;;;;5052565;28;20047;-91
2022/10/02 12:06:54;;;;;;;5.30;1.17;;;;;;;;;;4973389;28;20626;-92
2022/10/02 12:09:24;;;;;;;1.65;1.00;;;;;;;;;;5029416;28;20509;-93
2022/10/02 12:12:11;;;;;;;1.90;1.10;;;;;;;;;;5052475;28;20049;-94
2022/10/02 12:14:44;;;;;;;7.35;1.10;;;;;;;;;;5052429;28;20049;-92
2022/10/02 12:17:43;;;;;;;1.23;1.13;;;;;;;;;;5053174;28;20052;-92
2022/10/02 12:29:18;;;;;;;2.70;1.33;;;;;;;;;;5053085;28;20517;-92
2022/10/02 12:31:49;;;;;;;;;;;;;;;;;;5057064;28;20055;-90
2022/10/02 12:34:33;;;;;;;3.60;2.13;;;;;;;;;;5056121;28;19924;-91
2022/10/02 12:37:04;;;;;;;2.17;1.50;;;;;;;;;;5056056;28;20524;-92
2022/10/02 12:39:36;;;;;;;2.67;1.35;;;;;;;;;;5055819;28;20045;-92
2022/10/02 12:42:16;;;;;;;4.68;0.98;;;;;;;;;;5056443;28;20049;-92
2022/10/02 12:44:58;;;;;;;2.42;0.95;;;;;;;;;;5055228;28;20064;-92
2022/10/02 12:47:31;;;;;;;2.03;0.85;;;;;;;;;;5056655;28;20048;-92
2022/10/02 12:50:15;;;;;;;2.45;1.42;;;;;;;;;;5056577;28;20045;-92
2022/10/02 12:53:01;;;;;;;3.45;1.38;;;;;;;;;;5055617;28;20052;-92
2022/10/02 12:55:31;;;;;;;1.92;1.25;;;;;;;;;;5055468;28;20048;-92
2022/10/02 12:58:04;;;;;;;1.42;1.33;;;;;;;;;;5056404;28;20045;-93
2022/10/02 13:01:02;;;;;;;1.98;1.60;;;;;;;;;;5055588;28;20060;-92
2022/10/02 13:03:30;;;;;;;2.88;1.83;;;;;;;;;;5056129;28;20555;-92
2022/10/02 13:06:11;;;;;;;2.33;1.65;;;;;;;;;;5055401;28;20471;-92
2022/10/02 13:08:54;;;;;;;3.47;2.28;;;;;;;;;;5056575;28;20052;-92
2022/10/02 13:11:32;;;;;;;4.72;2.50;;;;;;;;;;5055198;28;20057;-93
2022/10/02 13:14:14;;;;;;;3.30;1.77;;;;;;;;;;5055023;28;20049;-92
2022/10/02 13:16:47;;;;;;;3.40;1.50;;;;;;;;;;5056143;28;20561;-93
2022/10/02 13:19:15;;;;;;;;;;;;;;;;;;5055590;28;20048;-93
2022/10/02 13:21:42;;;;;;;3.20;1.20;;;;;;;;;;5054950;28;19935;-92
2022/10/02 13:24:09;;;;;;;2.28;1.13;;;;;;;;;;5054888;28;20045;-92
2022/10/02 13:26:55;;;;;;;2.75;1.00;;;;;;;;;;5055831;28;20508;-93
2022/10/02 13:29:28;;;;;;;5.47;1.10;;;;;;;;;;5055956;28;20401;-92
2022/10/02 13:32:14;;;;;;;6.32;1.23;;;;;;;;;;5054777;28;20056;-92
2022/10/02 13:34:59;;;;;;;1.15;0.80;;;;;;;;;;5055623;28;20441;-92
2022/10/02 13:37:42;;;;;;;5.30;1.40;;;;;;;;;;5055576;28;20045;-91
2022/10/02 13:40:16;;;;;;;4.13;1.20;;;;;;;;;;5054662;28;20075;-92
2022/10/02 13:43:04;;;;;;;4.47;1.52;;;;;;;;;;5054306;28;20433;-91
2022/10/02 13:45:31;;;;;;;3.92;1.60;;;;;;;;;;5049461;28;20500;-92
2022/10/02 13:48:05;;;;;;;5.70;2.13;;;;;;;;;;5075120;28;20489;-88
2022/10/02 13:50:44;;;;;;;5.95;1.65;;;;;;;;;;5058261;28;20138;-91
2022/10/02 13:53:29;;;;;;;3.03;1.25;;;;;;;;;;5057586;28;20055;-90
2022/10/02 13:56:02;;;;;;;4.03;1.38;;;;;;;;;;5056240;28;20230;-90
2022/10/02 13:58:37;;;;;;;9.23;1.80;;;;;;;;;;5057900;28;20512;-90
2022/10/02 14:01:10;;;;;;;4.03;1.23;;;;;;;;;;5058022;28;20131;-91
2022/10/02 14:03:43;;;;;;;2.70;1.70;;;;;;;;;;5057598;28;20102;-90
2022/10/02 14:06:14;;;;;;;4.70;1.10;;;;;;;;;;5074800;28;20492;-89
2022/10/02 14:09:06;;;;;;;6.10;1.10;;;;;;;;;;5057596;28;20044;-90
2022/10/02 14:11:33;;;;;;;2.10;1.05;;;;;;;;;;5057674;28;20051;-90
2022/10/02 14:14:04;;;;;;;5.25;1.00;;;;;;;;;;5057140;28;20052;-88
2022/10/02 14:16:31;;;;;;;1.90;0.90;;;;;;;;;;5057874;28;20056;-91
2022/10/02 14:19:02;;;;;;;5.07;1.15;;;;;;;;;;5074942;28;20045;-89
2022/10/02 14:21:48;;;;;;;2.75;1.50;;;;;;;;;;5057350;28;20045;-90
2022/10/02 14:24:58;;;;;;;2.17;1.08;;;;;;;;;;5056951;28;20079;-89
2022/10/02 14:27:22;;;;;;;3.40;0.90;;;;;;;;;;5074596;28;20048;-89
2022/10/02 14:30:02;;;;;;;5.32;1.30;;;;;;;;;;5057140;28;20049;-89
2022/10/02 14:32:30;;;;;;;4.07;0.95;;;;;;;;;;5074690;28;20127;-90
2022/10/02 14:35:03;;;;;;;2.22;0.90;;;;;;;;;;5056631;28;20058;-89
2022/10/02 14:37:37;;;;;;;2.17;1.13;;;;;;;;;;5074588;28;20052;-89
2022/10/02 14:40:14;;;;;;;4.78;0.80;;;;;;;;;;5074395;28;20052;-87
2022/10/02 14:43:08;;;;;;;3.00;1.20;;;;;;;;;;5074195;28;20047;-88
2022/10/02 14:45:54;;;;;;;2.83;1.20;;;;;;;;;;5054557;28;20055;-88
2022/10/02 14:48:24;;;;;;;6.38;1.98;;;;;;;;;;5056560;28;20059;-88
2022/10/02 14:51:06;;;;;;;5.57;2.08;;;;;;;;;;5056837;28;20048;-87
2022/10/02 14:53:51;;;;;;;2.63;1.50;;;;;;;;;;5073535;28;20052;-89
2022/10/02 14:56:37;;;;;;;2.72;1.08;;;;;;;;;;5056557;28;20056;-88
2022/10/02 14:59:10;;;;;;;2.30;1.15;;;;;;;;;;5056577;28;20496;-87
2022/10/02 15:01:56;;;;;;;4.10;1.30;;;;;;;;;;5056436;28;20059;-88
2022/10/02 15:04:39;;;;;;;4.18;1.13;;;;;;;;;;5056547;28;20080;-87
2022/10/02 15:07:08;;;;;;;4.05;1.30;;;;;;;;;;5056595;28;20044;-89
2022/10/02 15:09:36;;;;;;;2.67;1.10;;;;;;;;;;5056349;28;20048;-88
2022/10/02 15:12:06;;;;;;;2.65;1.33;;;;;;;;;;5056662;28;20051;-89
2022/10/02 15:14:33;;;;;;;4.07;1.30;;;;;;;;;;5073610;28;20481;-87
2022/10/02 15:20:02;;;;;;;2.92;1.45;;;;;;;;;;5073788;28;20044;-88
2022/10/02 15:22:35;;;;;;;2.35;1.30;;;;;;;;;;5056356;28;20400;-88
2022/10/02 15:25:11;;;;;;;6.55;1.98;;;;;;;;;;5055765;28;20615;-88
2022/10/02 15:27:51;;;;;;;3.47;1.88;;;;;;;;;;5073852;28;20477;-88
2022/10/02 15:30:22;;;;;;;2.53;1.23;;;;;;;;;;5073566;28;20048;-87
2022/10/02 15:33:08;;;;;;;5.85;3.03;;;;;;;;;;5055929;28;20059;-87
2022/10/02 15:36:05;;;;;;;3.45;2.10;;;;;;;;;;5073610;28;20045;-88
2022/10/02 15:38:33;;;;;;;3.63;2.25;;;;;;;;;;5073566;28;20078;-86
2022/10/02 15:41:00;;;;;;;4.40;1.98;;;;;;;;;;5055825;28;20052;-88
2022/10/02 15:43:35;;;;;;;4.18;2.15;;;;;;;;;;5073435;28;20045;-88
2022/10/02 15:46:21;;;;;;;4.32;2.00;;;;;;;;;;5055027;28;20144;-86